• Join FlightAware (Why Join?)
  • Login
  • US Flag 
09:28PM EDT


 

Airport Tracker/Info


-or-


 

Live Flight TrackerFlight Track Log ✈ LAN439 ✈ 18-Mar-2014 ✈ SCEL / SCL - SABE / AEP

Flight Track Log - Related Links

Times and Time Zones

All times are in EDT time to prevent confusion due to time zone crossing. See the LAN439 flight status page for this flight to view local times or setup timezone preferences in your user account.

Time Position Orientation Groundspeed Altitude Reporting Facility
EDT Latitude Longitude Course Direction KTS MPH feet Rate Location/Type
07:46AM -33.3977 -70.8024 177° South 163 188 2,000  Level FlightAware ADS-B (SCEL / SCL)
07:46AM -33.4128 -70.8016 177° South 172 198 2,600 1,500 Climbing FlightAware ADS-B (SCEL / SCL)
07:47AM -33.4295 -70.8006 177° South 197 227 3,000 1,020 Climbing FlightAware ADS-B (SCEL / SCL)
07:47AM -33.4506 -70.7995 177° South 232 267 3,300 1,140 Climbing FlightAware ADS-B (SCEL / SCL)
07:47AM -33.4722 -70.7984 178° South 265 305 3,800 2,400 Climbing FlightAware ADS-B (SCEL / SCL)
07:48AM -33.4981 -70.7972 178° South 272 313 4,900 3,480 Climbing FlightAware ADS-B (SCEL / SCL)
07:48AM -33.5240 -70.7959 178° South 272 313 6,100 3,000 Climbing FlightAware ADS-B (SCEL / SCL)
07:48AM -33.5472 -70.7946 177° South 289 333 6,900 2,340 Climbing FlightAware ADS-B (SCEL / SCL)
07:49AM -33.5783 -70.7927 177° South 304 350 7,700 2,760 Climbing FlightAware ADS-B (SCEL / SCL)
07:49AM -33.6190 -70.7900 177° South 310 357 9,200 2,760 Climbing FlightAware ADS-B (SCEL / SCL)
07:50AM -33.6605 -70.7871 177° South 326 375 10,500 1,740 Climbing FlightAware ADS-B (SCEL / SCL)
07:50AM -33.7297 -70.7828 177° South 371 427 11,300 1,860 Climbing FlightAware ADS-B (SCEL / SCL)
07:51AM -33.7803 -70.7796 177° South 377 434 12,700 2,520 Climbing FlightAware ADS-B (SCEL / SCL)
07:51AM -33.8351 -70.7707 163° South 392 451 13,800 2,160 Climbing FlightAware ADS-B (SCEL / SCL)
07:52AM -33.8491 -70.7621 149° Southeast 396 456 14,100 1,860 Climbing FlightAware ADS-B (SCEL / SCL)
07:52AM -33.8622 -70.7496 138° Southeast 397 457 14,400 2,280 Climbing FlightAware ADS-B (SCEL / SCL)
07:52AM -33.8745 -70.7314 124° Southeast 395 455 14,900 1,980 Climbing FlightAware ADS-B (SCEL / SCL)
07:52AM -33.9043 -70.6713 120° Southeast 408 470 15,800 2,040 Climbing FlightAware ADS-B (SCEL / SCL)
07:53AM -33.9323 -70.6127 120° Southeast 411 473 17,000 2,160 Climbing FlightAware ADS-B (SCEL / SCL)
07:53AM -33.9634 -70.5491 121° Southeast 421 484 18,000 2,040 Climbing FlightAware ADS-B (SCEL / SCL)
07:54AM -33.9911 -70.4862 113° Southeast 423 487 19,100 2,100 Climbing FlightAware ADS-B (SCEL / SCL)
07:54AM -34.0103 -70.4190 109° East 429 494 20,100 1,860 Climbing FlightAware ADS-B (SCEL / SCL)
07:55AM -34.0291 -70.3534 109° East 439 505 21,000 1,500 Climbing FlightAware ADS-B (SCEL / SCL)
07:55AM -34.0497 -70.2810 109° East 448 516 21,600 1,320 Climbing FlightAware ADS-B (SCEL / SCL)
07:56AM -34.0648 -70.2280 109° East 454 522 22,400 1,620 Climbing FlightAware ADS-B (SCEL / SCL)
07:57AM -34.0981 -70.1110 109° East 463 533 23,500 1,440 Climbing FlightAware ADS-B (SCEL / SCL)
07:57AM -34.1193 -70.0360 109° East 471 542 24,100 1,260 Climbing FlightAware ADS-B (SCEL / SCL)
07:58AM -34.1472 -69.9394 110° East 480 552 25,000 1,680 Climbing FlightAware ADS-B (SCEL / SCL)
07:58AM -34.1697 -69.8630 109° East 472 543 26,100 1,800 Climbing FlightAware ADS-B (SCEL / SCL)
07:59AM -34.1916 -69.7879 109° East 476 548 26,800 1,320 Climbing FlightAware ADS-B (SCEL / SCL)
07:59AM -34.2137 -69.7124 109° East 478 550 27,500 1,560 Climbing FlightAware ADS-B (SCEL / SCL)
08:00AM -34.2357 -69.6367 109° East 475 547 28,400 1,800 Climbing FlightAware ADS-B (SCEL / SCL)
08:02AM -34.2495 -69.4495 95° East  Level Estimated
08:03AM -34.2574 -69.3415 95° East  Level Estimated
08:04AM -34.2652 -69.2335 95° East  Level Estimated
08:05AM -34.2729 -69.1254 95° East  Level Estimated
08:06AM -34.2804 -69.0173 95° East  Level Estimated
08:07AM -34.2879 -68.9092 95° East  Level Estimated
08:08AM -34.2953 -68.8011 95° East  Level Estimated
08:09AM -34.3026 -68.6929 95° East  Level Estimated
08:10AM -34.3098 -68.5847 95° East  Level Estimated
08:11AM -34.3169 -68.4766 95° East  Level Estimated
08:12AM -34.3240 -68.3684 95° East  Level Estimated
08:13AM -34.3309 -68.2601 94° East  Level Estimated
08:14AM -34.3377 -68.1519 94° East  Level Estimated
08:15AM -34.3444 -68.0437 94° East  Level Estimated
08:16AM -34.3511 -67.9354 94° East  Level Estimated
08:17AM -34.3586 -67.8096 94° East  Level Estimated
08:18AM -34.3661 -67.6838 94° East  Level Estimated
08:19AM -34.3734 -67.5579 94° East  Level Estimated
08:20AM -34.3806 -67.4321 94° East  Level Estimated
08:21AM -34.3877 -67.3062 94° East  Level Estimated
08:22AM -34.3946 -67.1803 94° East  Level Estimated
08:23AM -34.4014 -67.0544 94° East  Level Estimated
08:24AM -34.4081 -66.9284 94° East  Level Estimated
08:25AM -34.4147 -66.8025 94° East  Level Estimated
08:26AM -34.4211 -66.6765 94° East  Level Estimated
08:27AM -34.4274 -66.5505 94° East  Level Estimated
08:28AM -34.4336 -66.4245 93° East  Level Estimated
08:29AM -34.4396 -66.2984 93° East  Level Estimated
08:30AM -34.4455 -66.1724 93° East  Level Estimated
08:31AM -34.4513 -66.0463 93° East  Level Estimated
08:32AM -34.4569 -65.9202 93° East  Level Estimated
08:33AM -34.4624 -65.7941 93° East  Level Estimated
08:34AM -34.4678 -65.6680 93° East  Level Estimated
08:35AM -34.4731 -65.5419 93° East  Level Estimated
08:36AM -34.4782 -65.4157 93° East  Level Estimated
08:37AM -34.4832 -65.2895 93° East  Level Estimated
08:38AM -34.4881 -65.1634 93° East  Level Estimated
08:39AM -34.4928 -65.0371 93° East  Level Estimated
08:40AM -34.4974 -64.9109 93° East  Level Estimated
08:41AM -34.5019 -64.7847 93° East  Level Estimated
08:42AM -34.5063 -64.6585 92° East  Level Estimated
08:43AM -34.5105 -64.5322 92° East  Level Estimated
08:44AM -34.5146 -64.4060 92° East  Level Estimated
08:45AM -34.5186 -64.2797 92° East  Level Estimated
08:46AM -34.5224 -64.1534 92° East  Level Estimated
08:47AM -34.5261 -64.0271 92° East  Level Estimated
08:48AM -34.5297 -63.9008 92° East  Level Estimated
08:49AM -34.5331 -63.7744 92° East  Level Estimated
08:50AM -34.5364 -63.6481 92° East  Level Estimated
08:51AM -34.5396 -63.5218 92° East  Level Estimated
08:52AM -34.5426 -63.3954 92° East  Level Estimated
08:53AM -34.5456 -63.2690 92° East  Level Estimated
08:54AM -34.5484 -63.1427 92° East  Level Estimated
08:55AM -34.5510 -63.0163 92° East  Level Estimated
08:56AM -34.5536 -62.8899 91° East  Level Estimated
08:57AM -34.5560 -62.7635 91° East  Level Estimated
08:58AM -34.5582 -62.6371 91° East  Level Estimated
08:59AM -34.5604 -62.5107 91° East  Level Estimated
09:00AM -34.5624 -62.3843 91° East  Level Estimated
09:01AM -34.5643 -62.2579 91° East  Level Estimated
09:02AM -34.5660 -62.1314 91° East  Level Estimated
09:03AM -34.5676 -62.0050 91° East  Level Estimated
09:04AM -34.5691 -61.8786 91° East  Level Estimated
09:05AM -34.5705 -61.7521 91° East  Level Estimated
09:06AM -34.5717 -61.6257 91° East  Level Estimated
09:07AM -34.5728 -61.4992 91° East  Level Estimated
09:08AM -34.5737 -61.3728 91° East  Level Estimated
09:09AM -34.5746 -61.2463 90° East  Level Estimated
09:10AM -34.5753 -61.1199 90° East  Level Estimated
09:11AM -34.5759 -60.9934 90° East  Level Estimated
09:12AM -34.5763 -60.8670 90° East  Level Estimated
09:13AM -34.5766 -60.7405 90° East  Level Estimated
09:14AM -34.5768 -60.6140 90° East  Level Estimated
09:15AM -34.5769 -60.4876 90° East  Level Estimated
09:16AM -34.5768 -60.3611 90° East  Level Estimated
09:17AM -34.5766 -60.2346 90° East  Level Estimated